sensor_id;sensor_type;location;lat;lon;timestamp;pressure;altitude;pressure_sealevel;temperature;humidity
46448;BME280;32145;50.390;30.778;2022-12-18T00:46:26;100264.50;;;-1.90;92.13
46448;BME280;32145;50.390;30.778;2022-12-18T00:49:13;100267.53;;;-1.75;92.55
46448;BME280;32145;50.390;30.778;2022-12-18T00:51:58;100268.38;;;-1.65;92.04
46448;BME280;32145;50.390;30.778;2022-12-18T00:54:42;100267.63;;;-1.57;91.83
46448;BME280;32145;50.390;30.778;2022-12-18T00:57:26;100275.34;;;-1.54;91.53
46448;BME280;32145;50.390;30.778;2022-12-18T01:00:12;100269.88;;;-1.52;91.48
46448;BME280;32145;50.390;30.778;2022-12-18T01:02:58;100286.25;;;-1.57;91.06
46448;BME280;32145;50.390;30.778;2022-12-18T01:05:42;100282.59;;;-1.56;90.71
46448;BME280;32145;50.390;30.778;2022-12-18T01:08:26;100293.53;;;-1.59;90.59
46448;BME280;32145;50.390;30.778;2022-12-18T01:11:11;100290.72;;;-1.58;90.40
46448;BME280;32145;50.390;30.778;2022-12-18T01:13:56;100294.97;;;-1.65;90.44
46448;BME280;32145;50.390;30.778;2022-12-18T01:16:40;100291.44;;;-1.65;89.52
46448;BME280;32145;50.390;30.778;2022-12-18T01:19:25;100312.00;;;-1.67;89.03
46448;BME280;32145;50.390;30.778;2022-12-18T01:22:09;100312.00;;;-1.67;88.87
46448;BME280;32145;50.390;30.778;2022-12-18T01:24:53;100318.31;;;-1.69;88.88
46448;BME280;32145;50.390;30.778;2022-12-18T01:27:37;100320.97;;;-1.69;88.74
46448;BME280;32145;50.390;30.778;2022-12-18T01:30:21;100325.63;;;-1.71;88.88
46448;BME280;32145;50.390;30.778;2022-12-18T01:33:05;100327.69;;;-1.64;88.69
46448;BME280;32145;50.390;30.778;2022-12-18T01:35:50;100334.00;;;-1.75;87.94
46448;BME280;32145;50.390;30.778;2022-12-18T01:38:35;100329.53;;;-1.75;88.09
46448;BME280;32145;50.390;30.778;2022-12-18T01:41:21;100334.13;;;-1.77;88.25
46448;BME280;32145;50.390;30.778;2022-12-18T01:47:32;100341.72;;;-1.82;87.72
46448;BME280;32145;50.390;30.778;2022-12-18T01:50:19;100355.97;;;-1.83;87.92
46448;BME280;32145;50.390;30.778;2022-12-18T01:53:11;100350.94;;;-1.86;87.90
46448;BME280;32145;50.390;30.778;2022-12-18T01:55:58;100354.72;;;-1.99;87.73
46448;BME280;32145;50.390;30.778;2022-12-18T01:58:48;100362.69;;;-1.99;87.68
46448;BME280;32145;50.390;30.778;2022-12-18T02:01:34;100360.03;;;-1.99;86.82
46448;BME280;32145;50.390;30.778;2022-12-18T02:04:20;100366.31;;;-2.00;87.28
46448;BME280;32145;50.390;30.778;2022-12-18T02:07:11;100376.81;;;-1.98;87.54
46448;BME280;32145;50.390;30.778;2022-12-18T02:10:02;100371.63;;;-2.00;87.08
46448;BME280;32145;50.390;30.778;2022-12-18T02:12:55;100371.75;;;-2.01;87.58
46448;BME280;32145;50.390;30.778;2022-12-18T02:15:45;100366.03;;;-2.07;87.35
46448;BME280;32145;50.390;30.778;2022-12-18T02:18:33;100389.41;;;-2.10;86.90
46448;BME280;32145;50.390;30.778;2022-12-18T02:21:28;100387.44;;;-2.08;87.41
46448;BME280;32145;50.390;30.778;2022-12-18T02:24:27;100385.47;;;-2.16;86.38
46448;BME280;32145;50.390;30.778;2022-12-18T02:27:15;100389.81;;;-2.15;86.89
46448;BME280;32145;50.390;30.778;2022-12-18T02:30:01;100399.31;;;-2.12;86.48
46448;BME280;32145;50.390;30.778;2022-12-18T02:32:48;100407.16;;;-2.11;86.70
46448;BME280;32145;50.390;30.778;2022-12-18T02:35:34;100401.69;;;-2.09;86.92
46448;BME280;32145;50.390;30.778;2022-12-18T02:38:20;100412.47;;;-2.11;87.29
46448;BME280;32145;50.390;30.778;2022-12-18T02:41:05;100409.94;;;-2.12;87.39
46448;BME280;32145;50.390;30.778;2022-12-18T02:43:55;100405.34;;;-2.10;86.70
46448;BME280;32145;50.390;30.778;2022-12-18T02:46:41;100416.38;;;-2.05;86.72
46448;BME280;32145;50.390;30.778;2022-12-18T02:49:33;100418.31;;;-2.07;87.28
46448;BME280;32145;50.390;30.778;2022-12-18T02:52:25;100419.03;;;-2.15;86.75
46448;BME280;32145;50.390;30.778;2022-12-18T02:55:22;100423.47;;;-2.15;86.38
46448;BME280;32145;50.390;30.778;2022-12-18T02:58:15;100429.50;;;-2.13;87.07
46448;BME280;32145;50.390;30.778;2022-12-18T03:01:06;100434.53;;;-2.20;86.21
46448;BME280;32145;50.390;30.778;2022-12-18T03:03:56;100449.63;;;-2.21;86.01
46448;BME280;32145;50.390;30.778;2022-12-18T03:06:42;100452.81;;;-2.27;86.17
46448;BME280;32145;50.390;30.778;2022-12-18T03:09:31;100457.72;;;-2.22;86.10
46448;BME280;32145;50.390;30.778;2022-12-18T03:12:20;100462.34;;;-2.24;86.33
46448;BME280;32145;50.390;30.778;2022-12-18T03:15:09;100464.16;;;-2.25;86.39
46448;BME280;32145;50.390;30.778;2022-12-18T03:18:02;100468.06;;;-2.29;86.73
46448;BME280;32145;50.390;30.778;2022-12-18T03:20:49;100471.28;;;-2.25;86.55
46448;BME280;32145;50.390;30.778;2022-12-18T03:23:39;100471.97;;;-2.33;85.77
46448;BME280;32145;50.390;30.778;2022-12-18T03:26:25;100474.06;;;-2.27;85.70
46448;BME280;32145;50.390;30.778;2022-12-18T03:29:16;100477.69;;;-2.28;85.70
46448;BME280;32145;50.390;30.778;2022-12-18T03:32:05;100477.97;;;-2.31;85.75
46448;BME280;32145;50.390;30.778;2022-12-18T03:34:52;100482.31;;;-2.30;85.83
46448;BME280;32145;50.390;30.778;2022-12-18T03:37:39;100488.31;;;-2.28;85.82
46448;BME280;32145;50.390;30.778;2022-12-18T03:40:27;100486.53;;;-2.27;85.55
46448;BME280;32145;50.390;30.778;2022-12-18T03:43:19;100492.09;;;-2.30;85.79
46448;BME280;32145;50.390;30.778;2022-12-18T03:46:09;100491.97;;;-2.29;85.47
46448;BME280;32145;50.390;30.778;2022-12-18T03:49:01;100486.47;;;-2.37;85.35
46448;BME280;32145;50.390;30.778;2022-12-18T03:51:52;100508.56;;;-2.37;85.11
46448;BME280;32145;50.390;30.778;2022-12-18T03:54:38;100504.19;;;-2.48;84.36
46448;BME280;32145;50.390;30.778;2022-12-18T03:57:27;100516.03;;;-2.52;84.32
46448;BME280;32145;50.390;30.778;2022-12-18T04:00:15;100512.69;;;-2.54;84.08
46448;BME280;32145;50.390;30.778;2022-12-18T04:03:01;100519.09;;;-2.56;84.82
46448;BME280;32145;50.390;30.778;2022-12-18T04:05:50;100523.31;;;-2.54;84.34
46448;BME280;32145;50.390;30.778;2022-12-18T04:08:36;100536.66;;;-2.65;83.58
46448;BME280;32145;50.390;30.778;2022-12-18T04:11:20;100534.69;;;-2.63;83.92
46448;BME280;32145;50.390;30.778;2022-12-18T04:14:04;100543.25;;;-2.60;84.44
46448;BME280;32145;50.390;30.778;2022-12-18T04:16:48;100546.75;;;-2.59;84.26
46448;BME280;32145;50.390;30.778;2022-12-18T04:19:32;100543.59;;;-2.74;83.45
46448;BME280;32145;50.390;30.778;2022-12-18T04:22:16;100555.06;;;-2.74;83.68
46448;BME280;32145;50.390;30.778;2022-12-18T04:25:01;100564.94;;;-2.76;83.50
46448;BME280;32145;50.390;30.778;2022-12-18T04:27:45;100570.69;;;-2.70;83.43
46448;BME280;32145;50.390;30.778;2022-12-18T04:30:29;100572.09;;;-2.76;83.25
46448;BME280;32145;50.390;30.778;2022-12-18T04:33:13;100579.88;;;-2.75;83.70
46448;BME280;32145;50.390;30.778;2022-12-18T04:35:57;100578.09;;;-2.74;82.96
46448;BME280;32145;50.390;30.778;2022-12-18T04:38:41;100581.59;;;-2.74;83.57
46448;BME280;32145;50.390;30.778;2022-12-18T04:41:26;100585.56;;;-2.68;83.23
46448;BME280;32145;50.390;30.778;2022-12-18T04:44:10;100586.63;;;-2.70;83.21
46448;BME280;32145;50.390;30.778;2022-12-18T04:46:54;100601.13;;;-2.75;83.32
46448;BME280;32145;50.390;30.778;2022-12-18T04:49:38;100601.97;;;-2.74;83.75
46448;BME280;32145;50.390;30.778;2022-12-18T04:52:22;100596.78;;;-2.76;83.52
46448;BME280;32145;50.390;30.778;2022-12-18T04:55:07;100608.06;;;-2.83;83.39
46448;BME280;32145;50.390;30.778;2022-12-18T04:57:52;100613.38;;;-2.83;83.27
46448;BME280;32145;50.390;30.778;2022-12-18T05:00:36;100619.50;;;-2.83;82.84
46448;BME280;32145;50.390;30.778;2022-12-18T05:03:20;100622.16;;;-2.83;82.64
46448;BME280;32145;50.390;30.778;2022-12-18T05:06:05;100635.94;;;-2.89;82.34
46448;BME280;32145;50.390;30.778;2022-12-18T05:08:49;100637.19;;;-2.93;81.94
46448;BME280;32145;50.390;30.778;2022-12-18T05:11:33;100643.94;;;-3.01;81.91
46448;BME280;32145;50.390;30.778;2022-12-18T05:14:19;100647.31;;;-2.99;81.47
46448;BME280;32145;50.390;30.778;2022-12-18T05:17:03;100639.47;;;-3.00;81.51
46448;BME280;32145;50.390;30.778;2022-12-18T05:19:47;100657.00;;;-3.09;81.10
46448;BME280;32145;50.390;30.778;2022-12-18T05:22:31;100653.50;;;-3.09;80.94
46448;BME280;32145;50.390;30.778;2022-12-18T05:25:15;100658.47;;;-3.16;79.73
46448;BME280;32145;50.390;30.778;2022-12-18T05:27:59;100657.72;;;-3.18;80.59
46448;BME280;32145;50.390;30.778;2022-12-18T05:30:47;100670.63;;;-3.14;80.54
46448;BME280;32145;50.390;30.778;2022-12-18T05:33:33;100678.72;;;-3.15;80.05
46448;BME280;32145;50.390;30.778;2022-12-18T05:36:17;100673.91;;;-3.21;78.96
46448;BME280;32145;50.390;30.778;2022-12-18T05:39:02;100688.13;;;-3.22;79.41
46448;BME280;32145;50.390;30.778;2022-12-18T05:41:46;100699.69;;;-3.24;80.08
46448;BME280;32145;50.390;30.778;2022-12-18T05:44:30;100691.88;;;-3.25;79.89
46448;BME280;32145;50.390;30.778;2022-12-18T05:47:15;100696.81;;;-3.32;79.23
46448;BME280;32145;50.390;30.778;2022-12-18T05:49:59;100700.91;;;-3.28;79.80
46448;BME280;32145;50.390;30.778;2022-12-18T05:52:43;100714.91;;;-3.26;79.38
46448;BME280;32145;50.390;30.778;2022-12-18T05:55:27;100713.72;;;-3.33;79.41
46448;BME280;32145;50.390;30.778;2022-12-18T05:58:12;100719.25;;;-3.36;79.00
46448;BME280;32145;50.390;30.778;2022-12-18T06:00:56;100730.09;;;-3.39;78.92
46448;BME280;32145;50.390;30.778;2022-12-18T06:03:42;100742.38;;;-3.38;79.14
46448;BME280;32145;50.390;30.778;2022-12-18T06:06:27;100738.78;;;-3.37;78.93
46448;BME280;32145;50.390;30.778;2022-12-18T06:09:11;100748.78;;;-3.41;78.45
46448;BME280;32145;50.390;30.778;2022-12-18T06:11:55;100752.97;;;-3.38;78.80
46448;BME280;32145;50.390;30.778;2022-12-18T06:14:39;100760.22;;;-3.40;78.31
46448;BME280;32145;50.390;30.778;2022-12-18T06:17:27;100757.69;;;-3.42;78.71
46448;BME280;32145;50.390;30.778;2022-12-18T06:20:13;100773.84;;;-3.45;78.33
46448;BME280;32145;50.390;30.778;2022-12-18T06:22:57;100766.25;;;-3.50;78.14
46448;BME280;32145;50.390;30.778;2022-12-18T06:25:41;100764.31;;;-3.47;77.64
46448;BME280;32145;50.390;30.778;2022-12-18T06:28:25;100790.84;;;-3.47;77.60
46448;BME280;32145;50.390;30.778;2022-12-18T06:31:09;100789.16;;;-3.48;77.56
46448;BME280;32145;50.390;30.778;2022-12-18T06:33:53;100782.16;;;-3.50;77.78
46448;BME280;32145;50.390;30.778;2022-12-18T06:36:38;100787.47;;;-3.50;77.95
46448;BME280;32145;50.390;30.778;2022-12-18T06:39:22;100800.00;;;-3.52;78.20
46448;BME280;32145;50.390;30.778;2022-12-18T10:25:15;101079.91;;;-4.37;78.21
46448;BME280;32145;50.390;30.778;2022-12-18T10:28:10;101093.22;;;-4.25;77.96
46448;BME280;32145;50.390;30.778;2022-12-18T10:34:16;101091.94;;;-4.07;76.26
46448;BME280;32145;50.390;30.778;2022-12-18T10:37:03;101097.47;;;-4.10;75.61
46448;BME280;32145;50.390;30.778;2022-12-18T10:40:11;101093.44;;;-4.03;75.55
46448;BME280;32145;50.390;30.778;2022-12-18T10:43:10;101091.94;;;-4.07;75.01
46448;BME280;32145;50.390;30.778;2022-12-18T10:46:11;101098.00;;;-4.05;75.60
46448;BME280;32145;50.390;30.778;2022-12-18T10:48:57;101097.91;;;-4.03;75.36
46448;BME280;32145;50.390;30.778;2022-12-18T10:51:41;101095.34;;;-4.05;74.84
46448;BME280;32145;50.390;30.778;2022-12-18T10:54:27;101106.88;;;-4.06;75.17
46448;BME280;32145;50.390;30.778;2022-12-18T10:57:34;101103.19;;;-4.03;75.19
46448;BME280;32145;50.390;30.778;2022-12-18T11:00:25;101101.38;;;-4.03;74.92
46448;BME280;32145;50.390;30.778;2022-12-18T11:03:29;101108.59;;;-4.05;74.43
46448;BME280;32145;50.390;30.778;2022-12-18T11:06:15;101108.34;;;-4.02;74.86
46448;BME280;32145;50.390;30.778;2022-12-18T11:09:01;101116.44;;;-4.03;74.42
46448;BME280;32145;50.390;30.778;2022-12-18T11:11:48;101122.25;;;-4.11;74.43
46448;BME280;32145;50.390;30.778;2022-12-18T11:14:41;101125.44;;;-4.06;74.77
46448;BME280;32145;50.390;30.778;2022-12-18T11:17:29;101132.44;;;-4.05;74.89
46448;BME280;32145;50.390;30.778;2022-12-18T11:20:23;101123.13;;;-3.97;75.18
46448;BME280;32145;50.390;30.778;2022-12-18T11:23:12;101147.91;;;-3.98;74.64
46448;BME280;32145;50.390;30.778;2022-12-18T11:25:58;101158.50;;;-3.98;74.65
46448;BME280;32145;50.390;30.778;2022-12-18T11:28:46;101160.22;;;-3.97;75.07
46448;BME280;32145;50.390;30.778;2022-12-18T11:31:35;101156.03;;;-4.02;74.92
46448;BME280;32145;50.390;30.778;2022-12-18T11:34:23;101165.72;;;-4.01;74.25
46448;BME280;32145;50.390;30.778;2022-12-18T11:37:11;101172.91;;;-4.03;74.13
46448;BME280;32145;50.390;30.778;2022-12-18T11:40:00;101182.69;;;-4.03;74.48
46448;BME280;32145;50.390;30.778;2022-12-18T11:42:50;101185.19;;;-4.02;74.74
46448;BME280;32145;50.390;30.778;2022-12-18T11:45:40;101187.31;;;-4.07;74.31
46448;BME280;32145;50.390;30.778;2022-12-18T11:48:30;101197.09;;;-4.07;74.71
46448;BME280;32145;50.390;30.778;2022-12-18T11:51:20;101201.53;;;-4.08;73.86
46448;BME280;32145;50.390;30.778;2022-12-18T11:54:11;101195.56;;;-4.11;73.94
46448;BME280;32145;50.390;30.778;2022-12-18T11:56:58;101205.44;;;-4.14;74.21
46448;BME280;32145;50.390;30.778;2022-12-18T11:59:54;101207.69;;;-4.07;74.65
46448;BME280;32145;50.390;30.778;2022-12-18T12:03:07;101219.88;;;-4.05;74.18
46448;BME280;32145;50.390;30.778;2022-12-18T12:06:05;101198.78;;;-4.06;74.70
46448;BME280;32145;50.390;30.778;2022-12-18T12:08:59;101211.06;;;-4.05;74.16
46448;BME280;32145;50.390;30.778;2022-12-18T12:12:02;101212.84;;;-4.06;74.56
46448;BME280;32145;50.390;30.778;2022-12-18T12:14:55;101229.69;;;-4.07;74.86
46448;BME280;32145;50.390;30.778;2022-12-18T12:17:49;101233.31;;;-4.08;74.37
46448;BME280;32145;50.390;30.778;2022-12-18T12:20:44;101225.75;;;-4.14;74.35
46448;BME280;32145;50.390;30.778;2022-12-18T12:23:39;101228.41;;;-4.14;74.79
46448;BME280;32145;50.390;30.778;2022-12-18T12:26:30;101243.25;;;-4.11;74.38
46448;BME280;32145;50.390;30.778;2022-12-18T12:29:31;101239.78;;;-4.12;74.17
46448;BME280;32145;50.390;30.778;2022-12-18T12:32:26;101247.06;;;-4.16;73.94
46448;BME280;32145;50.390;30.778;2022-12-18T12:35:22;101239.78;;;-4.12;73.91
46448;BME280;32145;50.390;30.778;2022-12-18T12:38:13;101237.75;;;-4.21;73.67
46448;BME280;32145;50.390;30.778;2022-12-18T12:41:03;101252.78;;;-4.22;74.69
46448;BME280;32145;50.390;30.778;2022-12-18T12:43:48;101258.94;;;-4.21;74.68
46448;BME280;32145;50.390;30.778;2022-12-18T12:46:36;101267.63;;;-4.19;74.45
46448;BME280;32145;50.390;30.778;2022-12-18T12:49:26;101274.22;;;-4.12;75.01
46448;BME280;32145;50.390;30.778;2022-12-18T12:52:14;101278.34;;;-4.08;74.88
46448;BME280;32145;50.390;30.778;2022-12-18T12:55:01;101290.44;;;-4.04;75.29
46448;BME280;32145;50.390;30.778;2022-12-18T12:57:54;101296.47;;;-4.02;75.42
46448;BME280;32145;50.390;30.778;2022-12-18T13:00:45;101295.63;;;-4.02;74.90
46448;BME280;32145;50.390;30.778;2022-12-18T13:03:36;101291.78;;;-4.11;74.67
46448;BME280;32145;50.390;30.778;2022-12-18T13:06:37;101300.25;;;-4.19;74.93
46448;BME280;32145;50.390;30.778;2022-12-18T13:09:21;101314.00;;;-4.27;74.97
46448;BME280;32145;50.390;30.778;2022-12-18T13:12:10;101303.31;;;-4.25;74.86
46448;BME280;32145;50.390;30.778;2022-12-18T13:15:12;101319.28;;;-4.27;74.99
46448;BME280;32145;50.390;30.778;2022-12-18T13:18:14;101320.97;;;-4.25;75.23
46448;BME280;32145;50.390;30.778;2022-12-18T13:21:05;101329.88;;;-4.27;75.59
46448;BME280;32145;50.390;30.778;2022-12-18T19:42:35;101940.28;;;-6.64;82.98
46448;BME280;32145;50.390;30.778;2022-12-18T19:45:19;101957.84;;;-6.43;83.39
46448;BME280;32145;50.390;30.778;2022-12-18T19:48:04;101959.00;;;-6.30;82.96
46448;BME280;32145;50.390;30.778;2022-12-18T19:50:48;101964.78;;;-6.22;82.21
46448;BME280;32145;50.390;30.778;2022-12-18T19:53:32;101969.81;;;-6.17;82.24
46448;BME280;32145;50.390;30.778;2022-12-18T19:56:18;101969.81;;;-6.17;81.42
46448;BME280;32145;50.390;30.778;2022-12-18T19:59:03;101980.09;;;-6.11;81.25
46448;BME280;32145;50.390;30.778;2022-12-18T20:01:47;101975.69;;;-6.10;81.14
